sensor_id;sensor_type;location;lat;lon;timestamp;P1;durP1;ratioP1;P2;durP2;ratioP2
13805;SDS011;6974;53.606;9.872;2022-10-04T00:00:58;5.30;;;2.70;;
13805;SDS011;6974;53.606;9.872;2022-10-04T00:03:30;5.73;;;2.87;;
13805;SDS011;6974;53.606;9.872;2022-10-04T00:06:00;7.10;;;3.10;;
13805;SDS011;6974;53.606;9.872;2022-10-04T00:08:30;6.20;;;2.83;;
13805;SDS011;6974;53.606;9.872;2022-10-04T00:11:03;6.43;;;2.83;;
13805;SDS011;6974;53.606;9.872;2022-10-04T00:13:34;5.00;;;2.80;;
13805;SDS011;6974;53.606;9.872;2022-10-04T00:16:03;5.03;;;3.03;;
13805;SDS011;6974;53.606;9.872;2022-10-04T00:18:36;5.57;;;3.37;;
13805;SDS011;6974;53.606;9.872;2022-10-04T00:21:05;5.97;;;3.00;;
13805;SDS011;6974;53.606;9.872;2022-10-04T00:23:41;7.20;;;2.70;;
13805;SDS011;6974;53.606;9.872;2022-10-04T00:26:12;5.33;;;2.70;;
13805;SDS011;6974;53.606;9.872;2022-10-04T00:34:51;5.10;;;2.67;;
13805;SDS011;6974;53.606;9.872;2022-10-04T00:37:19;5.57;;;2.60;;
13805;SDS011;6974;53.606;9.872;2022-10-04T00:39:54;5.60;;;2.90;;
13805;SDS011;6974;53.606;9.872;2022-10-04T00:45:15;5.70;;;2.77;;
13805;SDS011;6974;53.606;9.872;2022-10-04T00:47:56;5.37;;;2.37;;
13805;SDS011;6974;53.606;9.872;2022-10-04T00:50:46;5.93;;;2.83;;
13805;SDS011;6974;53.606;9.872;2022-10-04T00:53:19;6.20;;;2.80;;
13805;SDS011;6974;53.606;9.872;2022-10-04T00:56:02;11.13;;;3.40;;
13805;SDS011;6974;53.606;9.872;2022-10-04T00:58:31;5.63;;;3.40;;
13805;SDS011;6974;53.606;9.872;2022-10-04T01:01:02;8.57;;;3.57;;
13805;SDS011;6974;53.606;9.872;2022-10-04T01:03:31;7.60;;;3.33;;
13805;SDS011;6974;53.606;9.872;2022-10-04T01:06:02;5.93;;;3.40;;
13805;SDS011;6974;53.606;9.872;2022-10-04T01:08:32;6.63;;;3.33;;
13805;SDS011;6974;53.606;9.872;2022-10-04T01:11:03;5.67;;;3.17;;
13805;SDS011;6974;53.606;9.872;2022-10-04T01:13:36;5.73;;;3.27;;
13805;SDS011;6974;53.606;9.872;2022-10-04T01:16:10;6.53;;;3.10;;
13805;SDS011;6974;53.606;9.872;2022-10-04T01:18:40;7.77;;;3.43;;
13805;SDS011;6974;53.606;9.872;2022-10-04T01:21:08;6.27;;;4.00;;
13805;SDS011;6974;53.606;9.872;2022-10-04T01:23:49;7.73;;;3.93;;
13805;SDS011;6974;53.606;9.872;2022-10-04T01:26:33;7.17;;;3.83;;
13805;SDS011;6974;53.606;9.872;2022-10-04T01:29:05;8.97;;;3.80;;
13805;SDS011;6974;53.606;9.872;2022-10-04T01:31:38;6.37;;;3.40;;
13805;SDS011;6974;53.606;9.872;2022-10-04T01:34:06;6.77;;;3.93;;
13805;SDS011;6974;53.606;9.872;2022-10-04T01:36:33;7.13;;;3.53;;
13805;SDS011;6974;53.606;9.872;2022-10-04T01:39:03;7.13;;;3.80;;
13805;SDS011;6974;53.606;9.872;2022-10-04T01:41:31;6.93;;;3.73;;
13805;SDS011;6974;53.606;9.872;2022-10-04T01:44:16;5.87;;;4.00;;
13805;SDS011;6974;53.606;9.872;2022-10-04T01:46:48;8.10;;;4.30;;
13805;SDS011;6974;53.606;9.872;2022-10-04T01:49:19;6.77;;;3.80;;
13805;SDS011;6974;53.606;9.872;2022-10-04T01:51:53;9.33;;;4.30;;
13805;SDS011;6974;53.606;9.872;2022-10-04T01:54:30;7.37;;;3.70;;
13805;SDS011;6974;53.606;9.872;2022-10-04T01:56:59;6.17;;;4.03;;
13805;SDS011;6974;53.606;9.872;2022-10-04T01:59:34;6.63;;;3.77;;
13805;SDS011;6974;53.606;9.872;2022-10-04T02:02:05;7.23;;;4.20;;
13805;SDS011;6974;53.606;9.872;2022-10-04T02:04:36;6.50;;;3.80;;
13805;SDS011;6974;53.606;9.872;2022-10-04T02:07:10;6.13;;;4.03;;
13805;SDS011;6974;53.606;9.872;2022-10-04T02:09:40;6.17;;;4.07;;
13805;SDS011;6974;53.606;9.872;2022-10-04T02:12:09;7.77;;;3.80;;
13805;SDS011;6974;53.606;9.872;2022-10-04T02:14:41;5.77;;;3.23;;
13805;SDS011;6974;53.606;9.872;2022-10-04T02:17:17;8.90;;;3.97;;
13805;SDS011;6974;53.606;9.872;2022-10-04T02:19:46;8.13;;;3.97;;
13805;SDS011;6974;53.606;9.872;2022-10-04T02:22:14;5.50;;;3.70;;
13805;SDS011;6974;53.606;9.872;2022-10-04T02:24:43;8.57;;;3.33;;
13805;SDS011;6974;53.606;9.872;2022-10-04T02:27:12;9.43;;;4.20;;
13805;SDS011;6974;53.606;9.872;2022-10-04T02:29:39;5.60;;;3.67;;
13805;SDS011;6974;53.606;9.872;2022-10-04T02:32:07;6.10;;;3.20;;
13805;SDS011;6974;53.606;9.872;2022-10-04T02:34:52;9.00;;;3.87;;
13805;SDS011;6974;53.606;9.872;2022-10-04T02:37:21;7.83;;;4.03;;
13805;SDS011;6974;53.606;9.872;2022-10-04T02:39:51;11.00;;;4.10;;
13805;SDS011;6974;53.606;9.872;2022-10-04T02:42:24;6.53;;;3.00;;
13805;SDS011;6974;53.606;9.872;2022-10-04T02:45:04;7.13;;;3.50;;
13805;SDS011;6974;53.606;9.872;2022-10-04T02:47:39;5.13;;;3.77;;
13805;SDS011;6974;53.606;9.872;2022-10-04T02:50:16;10.13;;;3.67;;
13805;SDS011;6974;53.606;9.872;2022-10-04T02:52:50;7.93;;;3.40;;
13805;SDS011;6974;53.606;9.872;2022-10-04T02:55:24;9.47;;;4.00;;
13805;SDS011;6974;53.606;9.872;2022-10-04T02:57:53;7.97;;;3.40;;
13805;SDS011;6974;53.606;9.872;2022-10-04T03:00:21;5.67;;;3.10;;
13805;SDS011;6974;53.606;9.872;2022-10-04T03:03:07;6.30;;;3.30;;
13805;SDS011;6974;53.606;9.872;2022-10-04T03:05:52;9.37;;;3.20;;
13805;SDS011;6974;53.606;9.872;2022-10-04T03:08:23;11.03;;;4.03;;
13805;SDS011;6974;53.606;9.872;2022-10-04T03:10:53;7.07;;;3.60;;
13805;SDS011;6974;53.606;9.872;2022-10-04T03:13:20;6.83;;;3.97;;
13805;SDS011;6974;53.606;9.872;2022-10-04T03:15:47;8.67;;;3.90;;
13805;SDS011;6974;53.606;9.872;2022-10-04T03:18:15;7.30;;;4.13;;
13805;SDS011;6974;53.606;9.872;2022-10-04T03:20:43;11.60;;;4.47;;
13805;SDS011;6974;53.606;9.872;2022-10-04T03:23:11;8.90;;;4.97;;
13805;SDS011;6974;53.606;9.872;2022-10-04T03:25:41;9.13;;;4.67;;
13805;SDS011;6974;53.606;9.872;2022-10-04T03:28:15;8.40;;;4.50;;
13805;SDS011;6974;53.606;9.872;2022-10-04T03:30:43;6.87;;;3.83;;
13805;SDS011;6974;53.606;9.872;2022-10-04T03:33:14;7.33;;;4.00;;
13805;SDS011;6974;53.606;9.872;2022-10-04T03:35:44;10.20;;;3.70;;
13805;SDS011;6974;53.606;9.872;2022-10-04T03:38:14;6.47;;;3.30;;
13805;SDS011;6974;53.606;9.872;2022-10-04T03:40:44;5.77;;;3.97;;
13805;SDS011;6974;53.606;9.872;2022-10-04T03:43:18;6.63;;;4.17;;
13805;SDS011;6974;53.606;9.872;2022-10-04T03:45:47;8.63;;;3.70;;
13805;SDS011;6974;53.606;9.872;2022-10-04T03:48:16;7.30;;;4.13;;
13805;SDS011;6974;53.606;9.872;2022-10-04T03:50:52;5.97;;;3.50;;
13805;SDS011;6974;53.606;9.872;2022-10-04T03:53:24;6.27;;;3.43;;
13805;SDS011;6974;53.606;9.872;2022-10-04T03:55:55;6.33;;;3.63;;
13805;SDS011;6974;53.606;9.872;2022-10-04T03:58:25;9.33;;;4.70;;
13805;SDS011;6974;53.606;9.872;2022-10-04T04:01:00;8.43;;;3.73;;
13805;SDS011;6974;53.606;9.872;2022-10-04T04:03:40;5.40;;;3.70;;
13805;SDS011;6974;53.606;9.872;2022-10-04T04:06:22;7.07;;;4.33;;
13805;SDS011;6974;53.606;9.872;2022-10-04T04:08:51;7.67;;;4.40;;
13805;SDS011;6974;53.606;9.872;2022-10-04T04:11:20;8.17;;;3.70;;
13805;SDS011;6974;53.606;9.872;2022-10-04T04:13:52;7.73;;;3.90;;
13805;SDS011;6974;53.606;9.872;2022-10-04T04:16:27;9.20;;;4.50;;
13805;SDS011;6974;53.606;9.872;2022-10-04T04:18:54;8.37;;;4.20;;
13805;SDS011;6974;53.606;9.872;2022-10-04T04:21:25;7.13;;;3.60;;
13805;SDS011;6974;53.606;9.872;2022-10-04T04:23:54;7.80;;;3.80;;
13805;SDS011;6974;53.606;9.872;2022-10-04T04:26:25;7.73;;;3.80;;
13805;SDS011;6974;53.606;9.872;2022-10-04T04:29:02;8.87;;;4.60;;
13805;SDS011;6974;53.606;9.872;2022-10-04T04:31:35;7.23;;;4.20;;
13805;SDS011;6974;53.606;9.872;2022-10-04T04:34:14;8.23;;;3.73;;
13805;SDS011;6974;53.606;9.872;2022-10-04T04:36:43;4.47;;;3.60;;
13805;SDS011;6974;53.606;9.872;2022-10-04T04:39:13;6.97;;;3.90;;
13805;SDS011;6974;53.606;9.872;2022-10-04T04:42:00;8.93;;;3.63;;
13805;SDS011;6974;53.606;9.872;2022-10-04T04:44:32;8.63;;;4.40;;
13805;SDS011;6974;53.606;9.872;2022-10-04T04:46:59;9.10;;;4.30;;
13805;SDS011;6974;53.606;9.872;2022-10-04T04:49:26;8.70;;;4.80;;
13805;SDS011;6974;53.606;9.872;2022-10-04T04:51:55;9.67;;;5.30;;
13805;SDS011;6974;53.606;9.872;2022-10-04T04:54:23;9.77;;;4.10;;
13805;SDS011;6974;53.606;9.872;2022-10-04T04:56:52;10.23;;;5.03;;
13805;SDS011;6974;53.606;9.872;2022-10-04T04:59:20;6.67;;;3.87;;
13805;SDS011;6974;53.606;9.872;2022-10-04T05:01:50;7.83;;;4.50;;
13805;SDS011;6974;53.606;9.872;2022-10-04T05:04:18;8.30;;;4.20;;
13805;SDS011;6974;53.606;9.872;2022-10-04T05:06:47;10.03;;;5.00;;
13805;SDS011;6974;53.606;9.872;2022-10-04T05:09:25;8.07;;;4.77;;
13805;SDS011;6974;53.606;9.872;2022-10-04T05:11:56;9.57;;;5.37;;
13805;SDS011;6974;53.606;9.872;2022-10-04T05:14:27;5.17;;;4.33;;
13805;SDS011;6974;53.606;9.872;2022-10-04T05:16:56;8.63;;;4.40;;
13805;SDS011;6974;53.606;9.872;2022-10-04T05:19:25;11.03;;;5.10;;
13805;SDS011;6974;53.606;9.872;2022-10-04T05:21:55;10.77;;;5.27;;
13805;SDS011;6974;53.606;9.872;2022-10-04T05:24:24;12.67;;;5.13;;
13805;SDS011;6974;53.606;9.872;2022-10-04T05:26:54;8.47;;;5.33;;
13805;SDS011;6974;53.606;9.872;2022-10-04T05:29:24;10.60;;;5.80;;
13805;SDS011;6974;53.606;9.872;2022-10-04T05:31:57;9.20;;;6.03;;
13805;SDS011;6974;53.606;9.872;2022-10-04T05:34:30;7.97;;;5.33;;
13805;SDS011;6974;53.606;9.872;2022-10-04T05:37:16;8.27;;;5.70;;
13805;SDS011;6974;53.606;9.872;2022-10-04T05:39:53;8.97;;;5.87;;
13805;SDS011;6974;53.606;9.872;2022-10-04T05:42:41;9.60;;;5.87;;
13805;SDS011;6974;53.606;9.872;2022-10-04T05:45:15;10.87;;;6.03;;
13805;SDS011;6974;53.606;9.872;2022-10-04T05:47:45;9.20;;;5.33;;
13805;SDS011;6974;53.606;9.872;2022-10-04T05:50:15;9.43;;;5.93;;
13805;SDS011;6974;53.606;9.872;2022-10-04T05:52:45;8.73;;;5.37;;
13805;SDS011;6974;53.606;9.872;2022-10-04T05:55:16;11.20;;;5.97;;
13805;SDS011;6974;53.606;9.872;2022-10-04T05:57:50;10.27;;;6.63;;
13805;SDS011;6974;53.606;9.872;2022-10-04T06:00:24;8.00;;;6.73;;
13805;SDS011;6974;53.606;9.872;2022-10-04T06:03:11;11.77;;;6.67;;
13805;SDS011;6974;53.606;9.872;2022-10-04T06:05:48;9.97;;;6.50;;
13805;SDS011;6974;53.606;9.872;2022-10-04T06:08:27;9.30;;;5.87;;
13805;SDS011;6974;53.606;9.872;2022-10-04T06:11:13;10.10;;;6.00;;
13805;SDS011;6974;53.606;9.872;2022-10-04T06:14:02;10.60;;;6.67;;
13805;SDS011;6974;53.606;9.872;2022-10-04T06:17:02;8.70;;;5.57;;
13805;SDS011;6974;53.606;9.872;2022-10-04T06:19:49;10.40;;;6.53;;
13805;SDS011;6974;53.606;9.872;2022-10-04T06:22:41;9.67;;;6.07;;
13805;SDS011;6974;53.606;9.872;2022-10-04T06:25:11;8.53;;;6.33;;
13805;SDS011;6974;53.606;9.872;2022-10-04T06:27:42;6.87;;;5.80;;
13805;SDS011;6974;53.606;9.872;2022-10-04T06:30:14;11.13;;;6.27;;
13805;SDS011;6974;53.606;9.872;2022-10-04T06:32:49;11.47;;;6.03;;
13805;SDS011;6974;53.606;9.872;2022-10-04T06:35:39;9.23;;;6.33;;
13805;SDS011;6974;53.606;9.872;2022-10-04T06:38:32;9.23;;;6.37;;
13805;SDS011;6974;53.606;9.872;2022-10-04T06:41:17;9.87;;;5.83;;
13805;SDS011;6974;53.606;9.872;2022-10-04T06:44:12;9.80;;;6.37;;
13805;SDS011;6974;53.606;9.872;2022-10-04T06:46:54;8.63;;;6.37;;
13805;SDS011;6974;53.606;9.872;2022-10-04T06:49:33;9.67;;;6.43;;
13805;SDS011;6974;53.606;9.872;2022-10-04T06:52:12;11.30;;;6.43;;
13805;SDS011;6974;53.606;9.872;2022-10-04T06:58:07;10.80;;;7.83;;
13805;SDS011;6974;53.606;9.872;2022-10-04T07:00:53;10.27;;;6.40;;
13805;SDS011;6974;53.606;9.872;2022-10-04T07:03:25;12.37;;;7.03;;
13805;SDS011;6974;53.606;9.872;2022-10-04T07:05:57;11.67;;;7.47;;
13805;SDS011;6974;53.606;9.872;2022-10-04T07:08:32;14.50;;;7.50;;
13805;SDS011;6974;53.606;9.872;2022-10-04T07:11:06;12.07;;;7.40;;
13805;SDS011;6974;53.606;9.872;2022-10-04T07:13:43;10.43;;;6.37;;
13805;SDS011;6974;53.606;9.872;2022-10-04T07:16:25;11.67;;;7.23;;
13805;SDS011;6974;53.606;9.872;2022-10-04T07:18:59;11.37;;;7.47;;
13805;SDS011;6974;53.606;9.872;2022-10-04T07:21:35;9.63;;;7.10;;
13805;SDS011;6974;53.606;9.872;2022-10-04T07:24:08;9.83;;;7.17;;
13805;SDS011;6974;53.606;9.872;2022-10-04T07:26:40;10.13;;;7.03;;
13805;SDS011;6974;53.606;9.872;2022-10-04T07:29:12;13.67;;;7.43;;
13805;SDS011;6974;53.606;9.872;2022-10-04T07:31:46;11.83;;;7.10;;
13805;SDS011;6974;53.606;9.872;2022-10-04T07:34:19;11.97;;;7.60;;
13805;SDS011;6974;53.606;9.872;2022-10-04T07:36:49;11.67;;;8.63;;
13805;SDS011;6974;53.606;9.872;2022-10-04T07:39:21;13.00;;;8.33;;
13805;SDS011;6974;53.606;9.872;2022-10-04T07:41:51;13.60;;;7.57;;
13805;SDS011;6974;53.606;9.872;2022-10-04T07:44:25;8.83;;;7.10;;
13805;SDS011;6974;53.606;9.872;2022-10-04T07:46:59;13.30;;;8.37;;
13805;SDS011;6974;53.606;9.872;2022-10-04T07:49:32;15.50;;;9.60;;
13805;SDS011;6974;53.606;9.872;2022-10-04T07:52:19;13.97;;;8.10;;
13805;SDS011;6974;53.606;9.872;2022-10-04T07:55:15;11.57;;;8.43;;
13805;SDS011;6974;53.606;9.872;2022-10-04T07:57:49;11.70;;;7.87;;
13805;SDS011;6974;53.606;9.872;2022-10-04T08:00:23;16.93;;;8.50;;
13805;SDS011;6974;53.606;9.872;2022-10-04T08:02:57;11.13;;;7.53;;
13805;SDS011;6974;53.606;9.872;2022-10-04T08:05:40;12.33;;;7.83;;
13805;SDS011;6974;53.606;9.872;2022-10-04T08:08:19;12.80;;;7.70;;
13805;SDS011;6974;53.606;9.872;2022-10-04T08:10:58;12.90;;;7.67;;
13805;SDS011;6974;53.606;9.872;2022-10-04T08:13:41;16.27;;;8.40;;
13805;SDS011;6974;53.606;9.872;2022-10-04T08:16:19;10.27;;;7.70;;
13805;SDS011;6974;53.606;9.872;2022-10-04T08:18:58;13.50;;;7.87;;
13805;SDS011;6974;53.606;9.872;2022-10-04T08:21:38;13.47;;;7.83;;
13805;SDS011;6974;53.606;9.872;2022-10-04T08:24:12;14.27;;;7.60;;
13805;SDS011;6974;53.606;9.872;2022-10-04T08:26:50;12.03;;;8.33;;
13805;SDS011;6974;53.606;9.872;2022-10-04T08:32:23;9.73;;;8.07;;
13805;SDS011;6974;53.606;9.872;2022-10-04T08:35:16;12.03;;;8.27;;
13805;SDS011;6974;53.606;9.872;2022-10-04T08:37:58;10.97;;;7.80;;
13805;SDS011;6974;53.606;9.872;2022-10-04T08:40:44;12.00;;;7.93;;
13805;SDS011;6974;53.606;9.872;2022-10-04T08:43:37;12.00;;;7.70;;
13805;SDS011;6974;53.606;9.872;2022-10-04T08:50:20;14.60;;;9.33;;
13805;SDS011;6974;53.606;9.872;2022-10-04T08:53:20;14.23;;;8.77;;
13805;SDS011;6974;53.606;9.872;2022-10-04T08:56:04;18.37;;;9.90;;
13805;SDS011;6974;53.606;9.872;2022-10-04T09:02:05;15.43;;;8.93;;
13805;SDS011;6974;53.606;9.872;2022-10-04T09:05:17;13.13;;;8.70;;
13805;SDS011;6974;53.606;9.872;2022-10-04T09:10:58;11.77;;;8.17;;
13805;SDS011;6974;53.606;9.872;2022-10-04T09:13:47;13.37;;;8.13;;
13805;SDS011;6974;53.606;9.872;2022-10-04T09:16:25;12.53;;;8.47;;
13805;SDS011;6974;53.606;9.872;2022-10-04T09:19:19;15.17;;;8.87;;
13805;SDS011;6974;53.606;9.872;2022-10-04T09:21:52;13.90;;;8.50;;
13805;SDS011;6974;53.606;9.872;2022-10-04T09:24:52;17.83;;;8.53;;
13805;SDS011;6974;53.606;9.872;2022-10-04T09:27:45;16.93;;;10.27;;
13805;SDS011;6974;53.606;9.872;2022-10-04T09:30:31;14.07;;;9.07;;
13805;SDS011;6974;53.606;9.872;2022-10-04T09:36:10;17.90;;;8.57;;
13805;SDS011;6974;53.606;9.872;2022-10-04T09:41:45;15.33;;;7.63;;
13805;SDS011;6974;53.606;9.872;2022-10-04T09:47:41;11.50;;;7.37;;
13805;SDS011;6974;53.606;9.872;2022-10-04T09:50:16;12.23;;;7.80;;
13805;SDS011;6974;53.606;9.872;2022-10-04T09:53:03;13.27;;;7.93;;
13805;SDS011;6974;53.606;9.872;2022-10-04T09:55:52;12.73;;;8.43;;
13805;SDS011;6974;53.606;9.872;2022-10-04T10:01:26;14.10;;;8.20;;
13805;SDS011;6974;53.606;9.872;2022-10-04T10:06:54;18.97;;;8.13;;
13805;SDS011;6974;53.606;9.872;2022-10-04T10:09:37;16.10;;;7.83;;
13805;SDS011;6974;53.606;9.872;2022-10-04T10:12:30;11.00;;;7.07;;
13805;SDS011;6974;53.606;9.872;2022-10-04T10:15:29;14.27;;;7.70;;
13805;SDS011;6974;53.606;9.872;2022-10-04T10:18:09;12.33;;;7.73;;
13805;SDS011;6974;53.606;9.872;2022-10-04T10:23:57;12.93;;;7.30;;
13805;SDS011;6974;53.606;9.872;2022-10-04T10:27:11;12.17;;;7.90;;
13805;SDS011;6974;53.606;9.872;2022-10-04T10:30:02;11.87;;;6.63;;
13805;SDS011;6974;53.606;9.872;2022-10-04T10:32:45;13.57;;;7.03;;
13805;SDS011;6974;53.606;9.872;2022-10-04T10:35:27;10.97;;;7.10;;
13805;SDS011;6974;53.606;9.872;2022-10-04T10:38:22;10.70;;;6.87;;
13805;SDS011;6974;53.606;9.872;2022-10-04T10:41:10;12.53;;;6.70;;
13805;SDS011;6974;53.606;9.872;2022-10-04T10:43:52;16.03;;;7.17;;
13805;SDS011;6974;53.606;9.872;2022-10-04T10:46:46;13.97;;;6.87;;
13805;SDS011;6974;53.606;9.872;2022-10-04T10:49:30;13.23;;;6.50;;
13805;SDS011;6974;53.606;9.872;2022-10-04T10:55:47;14.70;;;7.23;;
13805;SDS011;6974;53.606;9.872;2022-10-04T10:58:55;14.17;;;6.67;;
13805;SDS011;6974;53.606;9.872;2022-10-04T11:01:52;12.63;;;5.97;;
13805;SDS011;6974;53.606;9.872;2022-10-04T11:04:43;9.60;;;5.93;;
13805;SDS011;6974;53.606;9.872;2022-10-04T11:10:32;15.43;;;6.90;;
13805;SDS011;6974;53.606;9.872;2022-10-04T11:13:20;13.07;;;7.10;;
13805;SDS011;6974;53.606;9.872;2022-10-04T11:16:23;10.97;;;6.97;;
13805;SDS011;6974;53.606;9.872;2022-10-04T11:25:47;11.17;;;6.50;;
13805;SDS011;6974;53.606;9.872;2022-10-04T11:28:36;12.07;;;5.67;;
13805;SDS011;6974;53.606;9.872;2022-10-04T11:37:44;10.17;;;5.40;;
13805;SDS011;6974;53.606;9.872;2022-10-04T11:40:27;13.40;;;5.70;;
13805;SDS011;6974;53.606;9.872;2022-10-04T11:43:15;8.50;;;4.77;;
13805;SDS011;6974;53.606;9.872;2022-10-04T11:46:06;10.57;;;4.67;;
13805;SDS011;6974;53.606;9.872;2022-10-04T11:48:45;8.63;;;4.87;;
13805;SDS011;6974;53.606;9.872;2022-10-04T11:51:29;9.57;;;4.80;;
13805;SDS011;6974;53.606;9.872;2022-10-04T11:57:29;9.63;;;3.83;;
13805;SDS011;6974;53.606;9.872;2022-10-04T12:00:07;7.63;;;3.97;;
13805;SDS011;6974;53.606;9.872;2022-10-04T12:02:53;9.37;;;3.63;;
13805;SDS011;6974;53.606;9.872;2022-10-04T12:05:39;8.77;;;3.80;;
13805;SDS011;6974;53.606;9.872;2022-10-04T12:08:19;8.07;;;3.67;;
13805;SDS011;6974;53.606;9.872;2022-10-04T12:11:09;7.53;;;3.50;;
13805;SDS011;6974;53.606;9.872;2022-10-04T12:14:18;7.97;;;4.10;;
13805;SDS011;6974;53.606;9.872;2022-10-04T12:20:01;10.67;;;3.63;;
13805;SDS011;6974;53.606;9.872;2022-10-04T12:22:52;7.70;;;3.50;;
13805;SDS011;6974;53.606;9.872;2022-10-04T12:25:32;8.40;;;3.70;;
13805;SDS011;6974;53.606;9.872;2022-10-04T12:28:32;8.73;;;3.60;;
13805;SDS011;6974;53.606;9.872;2022-10-04T12:31:19;9.17;;;3.83;;
13805;SDS011;6974;53.606;9.872;2022-10-04T12:33:51;9.00;;;4.10;;
13805;SDS011;6974;53.606;9.872;2022-10-04T12:36:31;8.83;;;3.97;;
13805;SDS011;6974;53.606;9.872;2022-10-04T12:39:20;8.60;;;4.30;;
13805;SDS011;6974;53.606;9.872;2022-10-04T12:42:05;7.83;;;4.00;;
13805;SDS011;6974;53.606;9.872;2022-10-04T12:44:40;9.23;;;4.47;;
13805;SDS011;6974;53.606;9.872;2022-10-04T12:50:39;8.43;;;3.80;;
13805;SDS011;6974;53.606;9.872;2022-10-04T12:53:17;7.10;;;3.60;;
13805;SDS011;6974;53.606;9.872;2022-10-04T12:56:03;9.43;;;4.00;;
13805;SDS011;6974;53.606;9.872;2022-10-04T12:58:39;8.37;;;3.80;;
13805;SDS011;6974;53.606;9.872;2022-10-04T13:01:18;10.60;;;3.93;;
13805;SDS011;6974;53.606;9.872;2022-10-04T13:07:01;8.07;;;3.60;;
13805;SDS011;6974;53.606;9.872;2022-10-04T13:09:48;9.80;;;3.70;;
13805;SDS011;6974;53.606;9.872;2022-10-04T13:12:28;8.10;;;3.57;;
13805;SDS011;6974;53.606;9.872;2022-10-04T13:17:54;3.70;;;3.00;;
13805;SDS011;6974;53.606;9.872;2022-10-04T13:20:44;8.63;;;3.77;;
13805;SDS011;6974;53.606;9.872;2022-10-04T13:23:25;4.73;;;3.20;;
13805;SDS011;6974;53.606;9.872;2022-10-04T13:29:02;5.70;;;3.23;;
13805;SDS011;6974;53.606;9.872;2022-10-04T13:31:35;4.63;;;3.10;;
13805;SDS011;6974;53.606;9.872;2022-10-04T13:34:09;5.80;;;3.17;;
13805;SDS011;6974;53.606;9.872;2022-10-04T13:36:51;10.23;;;3.90;;
13805;SDS011;6974;53.606;9.872;2022-10-04T13:39:35;6.23;;;3.40;;
13805;SDS011;6974;53.606;9.872;2022-10-04T13:42:24;4.93;;;2.63;;
13805;SDS011;6974;53.606;9.872;2022-10-04T13:45:22;5.93;;;3.33;;
13805;SDS011;6974;53.606;9.872;2022-10-04T13:51:04;6.67;;;3.47;;
13805;SDS011;6974;53.606;9.872;2022-10-04T13:53:56;5.37;;;3.30;;
13805;SDS011;6974;53.606;9.872;2022-10-04T13:56:55;6.40;;;3.40;;
13805;SDS011;6974;53.606;9.872;2022-10-04T13:59:28;6.17;;;3.50;;
13805;SDS011;6974;53.606;9.872;2022-10-04T14:11:22;6.50;;;3.53;;
13805;SDS011;6974;53.606;9.872;2022-10-04T14:14:18;6.80;;;3.73;;
13805;SDS011;6974;53.606;9.872;2022-10-04T14:17:12;9.70;;;3.97;;
13805;SDS011;6974;53.606;9.872;2022-10-04T14:20:22;6.40;;;3.47;;
13805;SDS011;6974;53.606;9.872;2022-10-04T14:23:19;7.23;;;3.47;;
13805;SDS011;6974;53.606;9.872;2022-10-04T14:26:06;7.67;;;3.73;;
13805;SDS011;6974;53.606;9.872;2022-10-04T14:32:16;5.87;;;3.20;;
13805;SDS011;6974;53.606;9.872;2022-10-04T14:35:08;8.13;;;3.37;;
13805;SDS011;6974;53.606;9.872;2022-10-04T14:44:00;5.80;;;2.90;;
13805;SDS011;6974;53.606;9.872;2022-10-04T14:47:10;5.07;;;2.97;;
13805;SDS011;6974;53.606;9.872;2022-10-04T14:49:50;6.57;;;3.30;;
13805;SDS011;6974;53.606;9.872;2022-10-04T14:52:37;8.03;;;3.33;;
13805;SDS011;6974;53.606;9.872;2022-10-04T14:55:21;6.73;;;3.20;;
13805;SDS011;6974;53.606;9.872;2022-10-04T14:58:04;6.67;;;3.30;;
13805;SDS011;6974;53.606;9.872;2022-10-04T15:00:51;5.80;;;3.30;;
13805;SDS011;6974;53.606;9.872;2022-10-04T15:03:30;6.47;;;3.37;;
13805;SDS011;6974;53.606;9.872;2022-10-04T15:06:08;8.53;;;3.27;;
13805;SDS011;6974;53.606;9.872;2022-10-04T15:11:41;5.13;;;3.17;;
13805;SDS011;6974;53.606;9.872;2022-10-04T15:14:31;10.83;;;3.53;;
13805;SDS011;6974;53.606;9.872;2022-10-04T15:17:03;6.13;;;3.50;;
13805;SDS011;6974;53.606;9.872;2022-10-04T15:19:36;7.17;;;3.90;;
13805;SDS011;6974;53.606;9.872;2022-10-04T15:22:20;5.57;;;3.73;;
13805;SDS011;6974;53.606;9.872;2022-10-04T15:24:51;4.63;;;3.00;;
13805;SDS011;6974;53.606;9.872;2022-10-04T15:27:35;5.90;;;3.10;;
13805;SDS011;6974;53.606;9.872;2022-10-04T15:30:20;5.97;;;3.50;;
13805;SDS011;6974;53.606;9.872;2022-10-04T15:32:59;6.10;;;3.27;;
13805;SDS011;6974;53.606;9.872;2022-10-04T15:35:39;7.83;;;4.10;;
13805;SDS011;6974;53.606;9.872;2022-10-04T15:38:21;5.60;;;3.43;;
13805;SDS011;6974;53.606;9.872;2022-10-04T15:40:59;6.43;;;3.30;;
13805;SDS011;6974;53.606;9.872;2022-10-04T15:43:29;5.87;;;3.90;;
13805;SDS011;6974;53.606;9.872;2022-10-04T15:49:07;4.53;;;2.93;;
13805;SDS011;6974;53.606;9.872;2022-10-04T15:52:13;5.77;;;3.17;;
13805;SDS011;6974;53.606;9.872;2022-10-04T15:55:09;8.27;;;4.03;;
13805;SDS011;6974;53.606;9.872;2022-10-04T15:57:51;5.80;;;3.70;;
13805;SDS011;6974;53.606;9.872;2022-10-04T16:00:38;7.53;;;4.10;;
13805;SDS011;6974;53.606;9.872;2022-10-04T16:03:17;8.50;;;3.87;;
13805;SDS011;6974;53.606;9.872;2022-10-04T16:05:58;5.67;;;3.60;;
13805;SDS011;6974;53.606;9.872;2022-10-04T16:11:33;6.53;;;3.47;;
13805;SDS011;6974;53.606;9.872;2022-10-04T16:14:22;6.90;;;3.40;;
13805;SDS011;6974;53.606;9.872;2022-10-04T16:17:10;6.20;;;3.70;;
13805;SDS011;6974;53.606;9.872;2022-10-04T16:19:53;5.10;;;3.30;;
13805;SDS011;6974;53.606;9.872;2022-10-04T16:22:30;5.63;;;3.43;;
13805;SDS011;6974;53.606;9.872;2022-10-04T16:24:58;5.90;;;3.60;;
13805;SDS011;6974;53.606;9.872;2022-10-04T16:27:48;6.73;;;3.43;;
13805;SDS011;6974;53.606;9.872;2022-10-04T16:30:30;5.60;;;3.30;;
13805;SDS011;6974;53.606;9.872;2022-10-04T16:36:04;7.77;;;3.57;;
13805;SDS011;6974;53.606;9.872;2022-10-04T16:38:34;5.20;;;3.63;;
13805;SDS011;6974;53.606;9.872;2022-10-04T16:41:32;4.83;;;3.77;;
13805;SDS011;6974;53.606;9.872;2022-10-04T16:44:05;4.97;;;3.60;;
13805;SDS011;6974;53.606;9.872;2022-10-04T16:46:47;8.23;;;4.60;;
13805;SDS011;6974;53.606;9.872;2022-10-04T16:49:19;6.47;;;3.77;;
13805;SDS011;6974;53.606;9.872;2022-10-04T16:52:00;7.20;;;4.30;;
13805;SDS011;6974;53.606;9.872;2022-10-04T16:54:39;7.60;;;3.90;;
13805;SDS011;6974;53.606;9.872;2022-10-04T16:57:23;5.37;;;3.80;;
13805;SDS011;6974;53.606;9.872;2022-10-04T16:59:55;5.10;;;4.00;;
13805;SDS011;6974;53.606;9.872;2022-10-04T17:05:42;6.93;;;4.30;;
13805;SDS011;6974;53.606;9.872;2022-10-04T17:08:49;5.47;;;3.83;;
13805;SDS011;6974;53.606;9.872;2022-10-04T17:11:29;10.07;;;4.77;;
13805;SDS011;6974;53.606;9.872;2022-10-04T17:14:05;7.57;;;4.30;;
13805;SDS011;6974;53.606;9.872;2022-10-04T17:17:14;5.97;;;4.07;;
13805;SDS011;6974;53.606;9.872;2022-10-04T17:19:48;7.13;;;4.60;;
13805;SDS011;6974;53.606;9.872;2022-10-04T17:22:22;7.77;;;4.20;;
13805;SDS011;6974;53.606;9.872;2022-10-04T17:25:04;6.23;;;4.90;;
13805;SDS011;6974;53.606;9.872;2022-10-04T17:27:45;6.87;;;4.40;;
13805;SDS011;6974;53.606;9.872;2022-10-04T17:30:15;6.50;;;4.30;;
13805;SDS011;6974;53.606;9.872;2022-10-04T17:32:46;6.97;;;4.83;;
13805;SDS011;6974;53.606;9.872;2022-10-04T17:38:35;8.20;;;4.77;;
13805;SDS011;6974;53.606;9.872;2022-10-04T17:41:16;6.90;;;5.20;;
13805;SDS011;6974;53.606;9.872;2022-10-04T17:44:02;8.20;;;5.10;;
13805;SDS011;6974;53.606;9.872;2022-10-04T17:46:48;8.30;;;4.93;;
13805;SDS011;6974;53.606;9.872;2022-10-04T17:49:25;7.00;;;4.97;;
13805;SDS011;6974;53.606;9.872;2022-10-04T17:52:24;6.00;;;4.80;;
13805;SDS011;6974;53.606;9.872;2022-10-04T17:55:11;8.73;;;5.47;;
13805;SDS011;6974;53.606;9.872;2022-10-04T17:57:43;6.77;;;5.70;;
13805;SDS011;6974;53.606;9.872;2022-10-04T18:00:14;7.80;;;6.07;;
13805;SDS011;6974;53.606;9.872;2022-10-04T18:02:54;8.13;;;5.83;;
13805;SDS011;6974;53.606;9.872;2022-10-04T18:05:28;7.83;;;5.80;;
13805;SDS011;6974;53.606;9.872;2022-10-04T18:07:59;9.43;;;6.47;;
13805;SDS011;6974;53.606;9.872;2022-10-04T18:10:33;8.33;;;6.37;;